createdAt,value
2022-09-21T00:02:15.146Z,100.00
2022-09-21T00:04:44.394Z,100.00
2022-09-21T00:07:13.487Z,100.00
2022-09-21T00:09:45.340Z,100.00
2022-09-21T00:12:15.100Z,100.00
2022-09-21T00:14:45.313Z,100.00
2022-09-21T00:17:14.536Z,100.00
2022-09-21T00:19:43.721Z,100.00
2022-09-21T00:22:13.249Z,100.00
2022-09-21T00:24:49.468Z,100.00
2022-09-21T00:27:19.100Z,100.00
2022-09-21T00:29:48.232Z,100.00
2022-09-21T00:32:24.735Z,100.00
2022-09-21T00:34:53.896Z,100.00
2022-09-21T00:37:23.190Z,100.00
2022-09-21T00:39:54.913Z,100.00
2022-09-21T00:42:24.481Z,100.00
2022-09-21T00:44:59.228Z,100.00
2022-09-21T00:47:32.934Z,100.00
2022-09-21T00:50:07.094Z,100.00
2022-09-21T00:52:41.301Z,100.00
2022-09-21T00:55:17.269Z,100.00
2022-09-21T00:57:50.762Z,100.00
2022-09-21T01:00:20.264Z,100.00
2022-09-21T01:02:49.991Z,100.00
2022-09-21T01:05:19.480Z,100.00
2022-09-21T01:07:49.899Z,100.00
2022-09-21T01:10:27.101Z,100.00
2022-09-21T01:13:17.949Z,100.00
2022-09-21T01:15:56.121Z,100.00
2022-09-21T01:18:36.919Z,100.00
2022-09-21T01:21:20.798Z,100.00
2022-09-21T01:24:19.404Z,100.00
2022-09-21T01:27:35.638Z,100.00
2022-09-21T01:30:09.524Z,100.00
2022-09-21T01:32:43.472Z,100.00
2022-09-21T01:35:18.276Z,100.00
2022-09-21T01:37:57.217Z,100.00
2022-09-21T01:40:35.411Z,100.00
2022-09-21T01:43:13.685Z,100.00
2022-09-21T01:45:58.006Z,100.00
2022-09-21T01:48:27.913Z,100.00
2022-09-21T01:50:59.818Z,100.00
2022-09-21T01:53:34.581Z,100.00
2022-09-21T01:56:11.648Z,100.00
2022-09-21T01:58:47.783Z,100.00
2022-09-21T02:01:23.109Z,100.00
2022-09-21T02:03:56.165Z,100.00
2022-09-21T02:06:27.785Z,100.00
2022-09-21T02:08:57.723Z,100.00
2022-09-21T02:11:26.972Z,100.00
2022-09-21T02:16:39.328Z,100.00
2022-09-21T02:19:28.866Z,100.00
2022-09-21T02:22:10.689Z,100.00
2022-09-21T02:24:44.368Z,100.00
2022-09-21T02:27:29.955Z,100.00
2022-09-21T02:30:05.336Z,100.00
2022-09-21T02:32:50.007Z,100.00
2022-09-21T02:35:30.059Z,100.00
2022-09-21T02:38:09.067Z,100.00
2022-09-21T02:40:43.198Z,100.00
2022-09-21T02:43:16.603Z,100.00
2022-09-21T02:45:57.235Z,100.00
2022-09-21T02:48:38.504Z,100.00
2022-09-21T02:51:17.568Z,100.00
2022-09-21T02:53:49.053Z,100.00
2022-09-21T02:56:18.631Z,100.00
2022-09-21T02:58:51.468Z,100.00
2022-09-21T03:01:22.027Z,100.00
2022-09-21T03:03:53.342Z,100.00
2022-09-21T03:06:23.251Z,100.00
2022-09-21T03:08:52.452Z,100.00
2022-09-21T03:11:22.281Z,100.00
2022-09-21T03:13:51.358Z,100.00
2022-09-21T03:16:21.952Z,100.00
2022-09-21T03:18:53.079Z,100.00
2022-09-21T03:21:22.324Z,100.00
2022-09-21T03:23:51.702Z,100.00
2022-09-21T03:26:26.378Z,100.00
2022-09-21T03:28:55.725Z,100.00
2022-09-21T03:31:25.057Z,100.00
2022-09-21T03:34:01.485Z,100.00
2022-09-21T03:36:30.806Z,100.00
2022-09-21T03:38:59.914Z,100.00
2022-09-21T03:41:29.089Z,100.00
2022-09-21T03:43:58.253Z,100.00
2022-09-21T03:46:34.923Z,100.00
2022-09-21T03:49:11.305Z,100.00
2022-09-21T03:51:40.858Z,100.00
2022-09-21T03:54:09.996Z,100.00
2022-09-21T03:56:39.564Z,100.00
2022-09-21T03:59:11.898Z,100.00
2022-09-21T04:01:43.298Z,100.00
2022-09-21T04:04:16.223Z,100.00
2022-09-21T04:06:55.687Z,100.00
2022-09-21T04:09:24.946Z,100.00
2022-09-21T04:11:54.465Z,100.00
2022-09-21T04:14:24.527Z,100.00
2022-09-21T04:16:58.951Z,99.46
2022-09-21T04:19:30.600Z,98.92
2022-09-21T04:22:00.013Z,98.74
2022-09-21T04:24:30.541Z,98.17
2022-09-21T04:26:59.702Z,97.71
2022-09-21T04:29:28.892Z,97.74
2022-09-21T04:31:58.029Z,97.11
2022-09-21T04:34:27.159Z,96.42
2022-09-21T04:37:01.023Z,95.31
2022-09-21T04:39:31.415Z,95.17
2022-09-21T04:42:00.458Z,95.05
2022-09-21T04:44:29.887Z,94.82
2022-09-21T04:46:59.878Z,94.77
2022-09-21T04:49:29.128Z,94.74
2022-09-21T04:52:06.687Z,94.23
2022-09-21T04:54:35.785Z,93.89
2022-09-21T04:57:10.074Z,93.73
2022-09-21T04:59:39.245Z,93.01
2022-09-21T05:02:08.504Z,91.98
2022-09-21T05:04:37.749Z,92.04
2022-09-21T05:07:09.060Z,91.68
2022-09-21T05:09:56.474Z,91.05
2022-09-21T05:12:25.725Z,89.68
2022-09-21T05:14:55.658Z,89.18
2022-09-21T05:17:25.676Z,89.54
2022-09-21T05:19:55.142Z,89.98
2022-09-21T05:22:27.146Z,89.65
2022-09-21T05:24:55.925Z,88.71
2022-09-21T05:27:25.042Z,88.70
2022-09-21T05:29:59.913Z,88.47
2022-09-21T05:32:40.357Z,88.60
2022-09-21T05:35:18.393Z,88.31
2022-09-21T05:37:55.593Z,88.12
2022-09-21T05:40:25.976Z,87.89
2022-09-21T05:42:56.057Z,87.99
2022-09-21T05:45:28.420Z,86.50
2022-09-21T05:48:15.704Z,85.99
2022-09-21T05:50:56.353Z,85.10
2022-09-21T05:54:00.378Z,84.47
2022-09-21T05:56:45.109Z,84.10
2022-09-21T05:59:40.016Z,83.42
2022-09-21T06:02:22.430Z,83.22
2022-09-21T06:04:53.785Z,83.02
2022-09-21T06:07:22.958Z,82.71
2022-09-21T06:09:54.022Z,82.73
2022-09-21T06:12:23.244Z,82.65
2022-09-21T06:14:52.399Z,83.24
2022-09-21T06:17:21.564Z,83.85
2022-09-21T06:19:50.755Z,84.04
2022-09-21T06:22:19.917Z,84.24
2022-09-21T06:24:49.010Z,84.84
2022-09-21T06:27:20.773Z,85.04
2022-09-21T06:29:49.652Z,84.94
2022-09-21T06:32:20.782Z,85.83
2022-09-21T06:34:55.130Z,86.17
2022-09-21T06:37:24.304Z,87.29
2022-09-21T06:40:04.115Z,87.82
2022-09-21T06:42:35.416Z,87.60
2022-09-21T06:45:12.094Z,87.42
2022-09-21T06:47:41.190Z,87.36
2022-09-21T06:50:11.101Z,86.41
2022-09-21T06:52:41.630Z,85.72
2022-09-21T06:55:11.897Z,84.51
2022-09-21T06:57:43.365Z,82.97
2022-09-21T07:00:14.775Z,82.17
2022-09-21T07:02:46.360Z,81.56
2022-09-21T07:05:20.574Z,81.07
2022-09-21T07:07:53.717Z,79.71
2022-09-21T07:10:23.137Z,79.30
2022-09-21T07:12:59.395Z,79.20
2022-09-21T07:15:29.976Z,78.86
2022-09-21T07:18:06.329Z,77.76
2022-09-21T07:20:41.040Z,77.75
2022-09-21T07:23:14.828Z,77.39
2022-09-21T07:25:44.435Z,77.26
2022-09-21T07:28:15.730Z,77.53
2022-09-21T07:30:45.127Z,78.53
2022-09-21T07:33:14.234Z,78.43
2022-09-21T07:35:52.758Z,78.87
2022-09-21T07:38:22.256Z,79.16
2022-09-21T07:40:52.088Z,78.07
2022-09-21T07:43:23.207Z,78.18
2022-09-21T07:46:01.343Z,77.97
2022-09-21T07:48:31.026Z,76.87
2022-09-21T07:51:05.716Z,76.46
2022-09-21T07:53:35.233Z,76.26
2022-09-21T07:56:05.482Z,75.13
2022-09-21T07:58:56.239Z,74.04
2022-09-21T08:01:25.990Z,74.51
2022-09-21T08:03:56.859Z,74.23
2022-09-21T08:06:27.300Z,74.15
2022-09-21T08:09:01.695Z,73.96
2022-09-21T08:11:32.751Z,73.83
2022-09-21T08:14:22.464Z,73.23
2022-09-21T08:17:00.264Z,73.17
2022-09-21T08:19:29.566Z,72.71
2022-09-21T08:21:58.712Z,72.40
2022-09-21T08:24:28.346Z,72.65
2022-09-21T08:26:59.444Z,72.34
2022-09-21T08:29:30.733Z,72.73
2022-09-21T08:32:00.238Z,72.52
2022-09-21T08:34:29.544Z,72.85
2022-09-21T08:36:58.846Z,72.62
2022-09-21T08:39:28.086Z,72.88
2022-09-21T08:42:11.420Z,73.19
2022-09-21T08:44:46.845Z,72.07
2022-09-21T08:47:20.520Z,71.60
2022-09-21T08:49:55.738Z,70.49
2022-09-21T08:52:35.105Z,69.07
2022-09-21T08:55:17.351Z,67.29
2022-09-21T08:57:49.831Z,66.54
2022-09-21T09:00:23.002Z,66.54
2022-09-21T09:03:29.962Z,66.41
2022-09-21T09:06:10.108Z,66.91
2022-09-21T09:09:09.352Z,67.53
2022-09-21T09:12:00.108Z,66.45
2022-09-21T09:14:49.092Z,67.40
2022-09-21T09:17:51.324Z,67.80
2022-09-21T09:20:21.962Z,67.01
2022-09-21T09:23:04.394Z,67.48
2022-09-21T09:25:39.456Z,67.30
2022-09-21T09:28:22.624Z,66.01
2022-09-21T09:30:58.704Z,65.88
2022-09-21T09:33:43.971Z,65.39
2022-09-21T09:36:14.898Z,65.25
2022-09-21T09:38:52.152Z,65.55
2022-09-21T09:41:50.230Z,65.68
2022-09-21T09:44:39.873Z,65.91
2022-09-21T09:47:18.606Z,67.42
2022-09-21T09:50:00.739Z,67.19
2022-09-21T09:52:31.935Z,66.92
2022-09-21T09:55:01.605Z,67.60
2022-09-21T09:57:34.125Z,67.29
2022-09-21T10:00:14.201Z,66.80
2022-09-21T10:02:49.644Z,67.22
2022-09-21T10:05:26.943Z,67.26
2022-09-21T10:07:56.174Z,67.47
2022-09-21T10:10:34.035Z,67.49
2022-09-21T10:13:15.750Z,67.40
2022-09-21T10:15:50.871Z,67.97
2022-09-21T10:18:24.055Z,67.77
2022-09-21T10:21:01.838Z,67.37
2022-09-21T10:23:32.879Z,66.97
2022-09-21T10:26:05.077Z,67.46
2022-09-21T10:28:35.441Z,66.85
2022-09-21T10:31:19.282Z,67.50
2022-09-21T10:33:55.001Z,67.24
2022-09-21T10:36:39.654Z,66.79
2022-09-21T10:39:23.491Z,67.45
2022-09-21T10:41:56.049Z,67.56
2022-09-21T10:44:28.597Z,67.38
2022-09-21T10:47:00.585Z,67.26
2022-09-21T10:49:31.082Z,67.89
2022-09-21T10:52:05.126Z,67.25
2022-09-21T10:54:35.592Z,67.64
2022-09-21T10:57:16.512Z,67.60
2022-09-21T10:59:46.316Z,67.87
2022-09-21T11:02:43.709Z,67.18
2022-09-21T11:05:17.740Z,66.79
2022-09-21T11:07:56.457Z,66.70
2022-09-21T11:10:38.620Z,66.63
2022-09-21T11:13:30.857Z,67.21
2022-09-21T11:16:06.291Z,66.99
2022-09-21T11:18:47.858Z,67.04
2022-09-21T11:21:32.129Z,66.66
2022-09-21T11:24:14.653Z,67.06
2022-09-21T11:26:51.927Z,67.12
2022-09-21T11:29:31.308Z,67.03
2022-09-21T11:32:23.511Z,66.60
2022-09-21T11:35:20.720Z,66.67
2022-09-21T11:37:58.854Z,65.83
2022-09-21T11:40:50.273Z,65.90
2022-09-21T11:43:32.782Z,65.79
2022-09-21T11:46:15.405Z,66.10
2022-09-21T11:48:57.326Z,66.41
2022-09-21T11:51:41.967Z,66.58
2022-09-21T11:54:33.940Z,66.69
2022-09-21T11:57:10.882Z,67.21
2022-09-21T11:59:59.941Z,67.39
2022-09-21T12:02:53.246Z,67.16
2022-09-21T12:05:31.463Z,66.96
2022-09-21T12:08:35.394Z,66.76
2022-09-21T12:11:13.634Z,66.54
2022-09-21T12:13:54.431Z,66.06
2022-09-21T12:16:30.047Z,66.21
2022-09-21T12:19:06.744Z,66.45
2022-09-21T12:21:39.007Z,66.49
2022-09-21T12:24:16.978Z,66.19
2022-09-21T12:26:50.289Z,65.98
2022-09-21T12:29:30.669Z,65.71
2022-09-21T12:32:05.168Z,65.30
2022-09-21T12:34:41.614Z,66.32
2022-09-21T12:37:16.537Z,65.72
2022-09-21T12:39:51.481Z,65.73
2022-09-21T12:42:32.598Z,65.45
2022-09-21T12:45:08.530Z,65.22
2022-09-21T12:47:49.067Z,65.29
2022-09-21T12:56:51.303Z,65.73
2022-09-21T12:59:31.807Z,64.64
2022-09-21T13:02:15.069Z,64.94
2022-09-21T13:04:52.989Z,64.33
2022-09-21T13:07:54.936Z,64.08
2022-09-21T13:10:40.520Z,63.63
2022-09-21T13:13:22.328Z,64.29
2022-09-21T13:15:52.706Z,64.06
2022-09-21T13:18:35.860Z,64.15
2022-09-21T13:21:18.803Z,64.02
2022-09-21T13:23:58.733Z,64.54
2022-09-21T13:26:38.073Z,64.63
2022-09-21T13:29:34.439Z,65.58
2022-09-21T13:32:05.467Z,65.66
2022-09-21T13:34:36.876Z,66.23
2022-09-21T13:37:32.486Z,67.04
2022-09-21T13:40:42.057Z,67.64
2022-09-21T13:43:46.826Z,68.07
2022-09-21T13:46:55.636Z,68.66
2022-09-21T13:49:39.088Z,68.78
2022-09-21T13:52:34.235Z,69.00
2022-09-21T13:55:06.734Z,68.64
2022-09-21T13:57:42.493Z,69.04
2022-09-21T14:00:39.311Z,69.35
2022-09-21T14:03:23.745Z,69.54
2022-09-21T14:05:55.248Z,69.52
2022-09-21T14:08:33.162Z,69.77
2022-09-21T14:11:05.890Z,69.98
2022-09-21T14:13:37.793Z,70.40
2022-09-21T14:16:47.696Z,69.82
2022-09-21T14:20:01.539Z,69.46
2022-09-21T14:22:45.010Z,70.32
2022-09-21T14:25:50.669Z,70.81
2022-09-21T14:28:25.820Z,70.72
2022-09-21T14:31:00.862Z,70.99
2022-09-21T14:33:41.269Z,71.04
2022-09-21T14:36:20.365Z,71.07
2022-09-21T14:38:57.730Z,71.45
2022-09-21T14:41:30.897Z,71.98
2022-09-21T14:44:01.027Z,71.95
2022-09-21T14:46:53.508Z,72.56
2022-09-21T14:49:52.403Z,72.31
2022-09-21T14:52:38.025Z,73.07
2022-09-21T14:55:19.379Z,73.20
2022-09-21T14:58:13.981Z,73.73
2022-09-21T15:00:45.800Z,73.54
2022-09-21T15:03:38.704Z,73.06
2022-09-21T15:06:30.789Z,73.88
2022-09-21T15:09:32.153Z,75.01
2022-09-21T15:12:11.751Z,74.84
2022-09-21T15:14:50.442Z,74.72
2022-09-21T15:17:29.499Z,74.90
2022-09-21T15:20:06.119Z,75.30
2022-09-21T15:22:44.500Z,75.39
2022-09-21T15:25:15.870Z,75.89
2022-09-21T15:27:48.051Z,75.46
2022-09-21T15:30:25.749Z,75.29
2022-09-21T15:32:57.371Z,75.81
2022-09-21T15:35:28.887Z,76.06
2022-09-21T15:38:00.468Z,75.61
2022-09-21T15:40:51.943Z,75.18
2022-09-21T15:43:34.068Z,76.10
2022-09-21T15:46:05.401Z,76.24
2022-09-21T15:48:35.976Z,76.22
2022-09-21T15:51:12.351Z,76.57
2022-09-21T15:53:50.019Z,76.69
2022-09-21T15:56:23.008Z,76.91
2022-09-21T15:59:07.467Z,76.76
2022-09-21T16:01:44.338Z,77.02
2022-09-21T16:04:23.235Z,77.01
2022-09-21T16:07:03.752Z,77.42
2022-09-21T16:09:42.210Z,77.56
2022-09-21T16:12:49.222Z,77.64
2022-09-21T16:15:26.011Z,77.93
2022-09-21T16:18:01.361Z,78.09
2022-09-21T16:20:48.248Z,77.92
2022-09-21T16:23:21.107Z,78.52
2022-09-21T16:25:56.862Z,79.50
2022-09-21T16:28:35.965Z,79.43
2022-09-21T16:31:30.578Z,80.22
2022-09-21T16:34:21.606Z,80.58
2022-09-21T16:36:53.472Z,80.96
2022-09-21T16:39:22.973Z,81.22
2022-09-21T16:41:59.703Z,82.27
2022-09-21T16:47:16.549Z,81.35
2022-09-21T16:49:46.189Z,80.53
2022-09-21T16:52:16.757Z,80.52
2022-09-21T16:54:50.932Z,78.89
2022-09-21T16:57:20.865Z,79.50
2022-09-21T16:59:50.373Z,78.65
2022-09-21T17:02:26.727Z,81.76
2022-09-21T17:04:56.105Z,83.81
2022-09-21T17:07:25.525Z,85.52
2022-09-21T17:09:54.630Z,86.71
2022-09-21T17:12:24.108Z,87.57
2022-09-21T17:14:59.562Z,87.62
2022-09-21T17:17:32.619Z,87.90
2022-09-21T17:20:08.950Z,88.39
2022-09-21T17:22:38.085Z,89.23
2022-09-21T17:25:09.709Z,89.64
2022-09-21T17:27:40.786Z,89.45
2022-09-21T17:30:17.119Z,89.92
2022-09-21T17:32:49.720Z,90.12
2022-09-21T17:35:24.800Z,89.28
2022-09-21T17:37:54.164Z,88.96
2022-09-21T17:40:24.943Z,89.65
2022-09-21T17:43:11.557Z,88.95
2022-09-21T17:45:46.292Z,88.24
2022-09-21T17:48:21.958Z,87.44
2022-09-21T17:50:57.983Z,87.20
2022-09-21T17:53:36.940Z,87.36
2022-09-21T17:56:32.722Z,86.68
2022-09-21T17:59:04.562Z,86.14
2022-09-21T18:01:35.613Z,85.22
2022-09-21T18:04:08.462Z,85.84
2022-09-21T18:06:38.745Z,86.90
2022-09-21T18:11:57.798Z,88.38
2022-09-21T18:14:36.344Z,89.13
2022-09-21T18:17:21.697Z,90.09
2022-09-21T18:20:06.789Z,90.42
2022-09-21T18:22:46.377Z,91.53
2022-09-21T18:25:18.572Z,92.18
2022-09-21T18:27:57.056Z,92.72
2022-09-21T18:30:26.533Z,92.71
2022-09-21T18:33:10.206Z,93.18
2022-09-21T18:35:57.334Z,93.85
2022-09-21T18:38:36.615Z,93.59
2022-09-21T18:41:14.107Z,93.79
2022-09-21T18:44:03.186Z,94.71
2022-09-21T18:46:42.148Z,95.10
2022-09-21T18:49:18.743Z,95.27
2022-09-21T18:51:56.675Z,95.56
2022-09-21T18:54:27.662Z,95.92
2022-09-21T18:56:58.398Z,95.85
2022-09-21T18:59:33.327Z,96.39
2022-09-21T19:02:03.470Z,96.33
2022-09-21T19:04:33.365Z,97.43
2022-09-21T19:07:16.022Z,97.93
2022-09-21T19:09:55.205Z,98.38
2022-09-21T19:12:54.841Z,97.94
2022-09-21T19:15:59.826Z,98.28
2022-09-21T19:18:43.464Z,98.12
2022-09-21T19:21:23.735Z,98.48
2022-09-21T19:24:11.420Z,99.21
2022-09-21T19:26:53.018Z,99.79
2022-09-21T19:29:35.010Z,100.00
2022-09-21T19:32:03.900Z,100.00
2022-09-21T19:34:38.436Z,100.00
2022-09-21T19:37:08.482Z,100.00
2022-09-21T19:39:42.138Z,100.00
2022-09-21T19:42:27.860Z,100.00
2022-09-21T19:45:16.887Z,100.00
2022-09-21T19:47:54.460Z,100.00
2022-09-21T19:50:28.129Z,100.00
2022-09-21T19:53:22.973Z,100.00
2022-09-21T19:56:07.681Z,100.00
2022-09-21T19:58:50.599Z,100.00
2022-09-21T20:04:09.472Z,100.00
2022-09-21T20:06:44.110Z,100.00
2022-09-21T20:09:16.828Z,100.00
2022-09-21T20:11:54.173Z,100.00
2022-09-21T20:14:36.601Z,100.00
2022-09-21T20:17:10.358Z,100.00
2022-09-21T20:19:45.969Z,100.00
2022-09-21T20:22:17.292Z,100.00
2022-09-21T20:24:56.465Z,100.00
2022-09-21T20:27:34.421Z,100.00
2022-09-21T20:30:04.173Z,100.00
2022-09-21T20:32:34.929Z,100.00
2022-09-21T20:35:04.130Z,100.00
2022-09-21T20:37:33.156Z,100.00
2022-09-21T20:40:02.808Z,100.00
2022-09-21T20:42:37.910Z,100.00
2022-09-21T20:45:09.807Z,100.00
2022-09-21T20:47:51.222Z,100.00
2022-09-21T20:50:21.122Z,100.00
2022-09-21T20:52:50.503Z,100.00
2022-09-21T20:55:20.825Z,100.00
2022-09-21T20:57:57.620Z,100.00
2022-09-21T21:00:27.665Z,100.00
2022-09-21T21:02:58.673Z,100.00
2022-09-21T21:05:28.566Z,100.00
2022-09-21T21:07:58.107Z,100.00
2022-09-21T21:10:27.891Z,100.00
2022-09-21T21:12:59.948Z,100.00
2022-09-21T21:15:29.814Z,100.00
2022-09-21T21:17:58.930Z,100.00
2022-09-21T21:20:28.630Z,100.00
2022-09-21T21:22:57.741Z,100.00
2022-09-21T21:25:26.879Z,100.00
2022-09-21T21:27:58.966Z,100.00
2022-09-21T21:30:30.719Z,100.00
2022-09-21T21:33:05.126Z,100.00
2022-09-21T21:35:35.788Z,100.00
2022-09-21T21:38:05.075Z,100.00
2022-09-21T21:43:19.177Z,100.00
2022-09-21T21:46:01.469Z,100.00
2022-09-21T21:48:31.647Z,100.00
2022-09-21T21:51:01.910Z,100.00
2022-09-21T21:53:34.220Z,100.00
2022-09-21T21:56:05.235Z,100.00
2022-09-21T21:58:34.972Z,100.00
2022-09-21T22:01:14.678Z,100.00
2022-09-21T22:03:43.937Z,100.00
2022-09-21T22:06:13.974Z,100.00
2022-09-21T22:08:44.554Z,100.00
2022-09-21T22:11:14.391Z,100.00
2022-09-21T22:13:43.432Z,100.00
2022-09-21T22:18:52.188Z,100.00
2022-09-21T22:21:23.323Z,100.00
2022-09-21T22:23:59.878Z,100.00
2022-09-21T22:26:30.664Z,100.00
2022-09-21T22:29:04.358Z,100.00
2022-09-21T22:31:37.954Z,100.00
2022-09-21T22:34:08.624Z,100.00
2022-09-21T22:36:45.199Z,100.00
2022-09-21T22:39:15.245Z,100.00
2022-09-21T22:41:45.184Z,100.00
2022-09-21T22:44:14.398Z,100.00
2022-09-21T22:46:45.460Z,100.00
2022-09-21T22:49:14.627Z,100.00
2022-09-21T22:51:43.660Z,100.00
2022-09-21T22:54:12.822Z,100.00
2022-09-21T22:59:16.402Z,100.00
2022-09-21T23:01:47.476Z,100.00
2022-09-21T23:04:16.702Z,100.00
2022-09-21T23:06:51.713Z,100.00
2022-09-21T23:09:22.413Z,100.00
2022-09-21T23:11:53.363Z,100.00
2022-09-21T23:14:24.302Z,100.00
2022-09-21T23:16:55.393Z,100.00
2022-09-21T23:19:24.617Z,100.00
2022-09-21T23:21:54.539Z,100.00
2022-09-21T23:24:23.721Z,100.00
2022-09-21T23:26:52.980Z,100.00
2022-09-21T23:29:22.151Z,100.00
2022-09-21T23:31:56.363Z,100.00
2022-09-21T23:34:27.576Z,100.00
2022-09-21T23:36:56.822Z,100.00
2022-09-21T23:39:25.861Z,100.00
2022-09-21T23:41:55.049Z,100.00
2022-09-21T23:44:24.168Z,100.00
2022-09-21T23:46:53.408Z,100.00
2022-09-21T23:49:22.574Z,100.00
2022-09-21T23:54:38.983Z,100.00
2022-09-21T23:57:08.263Z,100.00
2022-09-21T23:59:37.490Z,100.00
